createdAt,value
2022-08-05T00:00:18.360Z,4.03
2022-08-05T00:02:50.716Z,4.20
2022-08-05T00:06:02.611Z,4.40
2022-08-05T00:08:32.978Z,4.18
2022-08-05T00:10:56.943Z,4.60
2022-08-05T00:13:38.188Z,4.00
2022-08-05T00:16:08.998Z,4.10
2022-08-05T00:18:37.978Z,4.28
2022-08-05T00:21:06.477Z,4.25
2022-08-05T00:23:46.950Z,4.55
2022-08-05T00:26:20.965Z,4.03
2022-08-05T00:28:49.526Z,4.45
2022-08-05T00:31:16.347Z,4.35
2022-08-05T00:34:53.628Z,4.25
2022-08-05T00:37:11.128Z,4.30
2022-08-05T00:39:44.372Z,4.30
2022-08-05T00:42:35.671Z,3.80
2022-08-05T00:45:08.546Z,4.10
2022-08-05T00:47:57.169Z,4.13
2022-08-05T00:50:25.262Z,4.22
2022-08-05T00:52:53.246Z,4.13
2022-08-05T00:55:20.093Z,4.20
2022-08-05T00:57:58.032Z,4.45
2022-08-05T01:00:26.240Z,4.25
2022-08-05T01:02:53.076Z,4.25
2022-08-05T01:05:19.866Z,4.57
2022-08-05T01:08:40.219Z,4.05
2022-08-05T01:10:54.755Z,4.15
2022-08-05T01:13:57.824Z,3.97
2022-08-05T01:16:34.014Z,3.90
2022-08-05T01:19:56.278Z,4.25
2022-08-05T01:22:28.099Z,4.43
2022-08-05T01:25:09.902Z,3.80
2022-08-05T01:27:50.670Z,3.80
2022-08-05T01:30:34.223Z,3.40
2022-08-05T01:33:06.249Z,3.60
2022-08-05T01:35:51.656Z,4.05
2022-08-05T01:38:24.723Z,4.05
2022-08-05T01:40:57.491Z,3.88
2022-08-05T01:43:26.487Z,4.00
2022-08-05T01:45:56.819Z,4.00
2022-08-05T01:48:28.565Z,3.88
2022-08-05T01:50:56.838Z,3.97
2022-08-05T01:53:55.235Z,3.97
2022-08-05T01:56:13.479Z,3.70
2022-08-05T01:59:02.511Z,4.00
2022-08-05T02:01:39.706Z,3.90
2022-08-05T02:04:10.196Z,4.00
2022-08-05T02:06:38.909Z,4.05
2022-08-05T02:09:06.946Z,3.75
2022-08-05T02:11:48.116Z,4.18
2022-08-05T02:14:25.514Z,4.50
2022-08-05T02:16:55.380Z,3.95
2022-08-05T02:19:25.009Z,3.60
2022-08-05T02:22:26.941Z,3.90
2022-08-05T02:25:12.664Z,3.65
2022-08-05T02:27:59.778Z,3.75
2022-08-05T02:30:32.507Z,4.05
2022-08-05T02:33:02.937Z,4.03
2022-08-05T02:35:38.086Z,4.28
2022-08-05T02:38:19.550Z,4.07
2022-08-05T02:40:46.924Z,3.70
2022-08-05T02:43:16.727Z,4.95
2022-08-05T02:45:51.500Z,4.15
2022-08-05T02:48:29.469Z,4.35
2022-08-05T02:51:00.110Z,4.20
2022-08-05T02:53:29.198Z,3.67
2022-08-05T02:56:07.007Z,3.92
2022-08-05T02:58:36.394Z,4.30
2022-08-05T03:01:14.825Z,4.10
2022-08-05T03:04:03.383Z,4.30
2022-08-05T03:06:57.016Z,4.18
2022-08-05T03:09:17.820Z,4.00
2022-08-05T03:11:58.039Z,3.90
2022-08-05T03:14:25.045Z,4.20
2022-08-05T03:16:53.530Z,4.07
2022-08-05T03:19:33.823Z,4.20
2022-08-05T03:22:01.424Z,4.25
2022-08-05T03:24:30.824Z,4.30
2022-08-05T03:26:59.993Z,3.70
2022-08-05T03:29:45.256Z,4.25
2022-08-05T03:32:15.506Z,3.80
2022-08-05T03:34:50.728Z,4.13
2022-08-05T03:37:19.013Z,3.72
2022-08-05T03:40:01.758Z,4.00
2022-08-05T03:42:31.971Z,3.78
2022-08-05T03:44:59.156Z,3.92
2022-08-05T03:47:30.495Z,4.25
2022-08-05T03:50:02.237Z,4.05
2022-08-05T03:52:38.383Z,4.13
2022-08-05T03:56:01.099Z,4.05
2022-08-05T03:58:22.307Z,3.95
2022-08-05T04:00:57.942Z,4.03
2022-08-05T04:03:29.409Z,4.00
2022-08-05T04:05:57.932Z,4.22
2022-08-05T04:08:36.372Z,3.83
2022-08-05T04:11:06.020Z,4.00
2022-08-05T04:13:50.647Z,3.88
2022-08-05T04:16:25.121Z,4.15
2022-08-05T04:18:57.772Z,3.90
2022-08-05T04:22:09.084Z,3.78
2022-08-05T04:24:19.189Z,3.60
2022-08-05T04:26:48.881Z,4.18
2022-08-05T04:29:15.472Z,4.03
2022-08-05T04:31:43.002Z,4.03
2022-08-05T04:34:33.031Z,3.95
2022-08-05T04:36:56.420Z,3.70
2022-08-05T04:39:23.193Z,3.88
2022-08-05T04:41:50.999Z,3.70
2022-08-05T04:44:28.975Z,3.78
2022-08-05T04:46:58.925Z,4.03
2022-08-05T04:49:38.348Z,3.80
2022-08-05T04:52:13.231Z,3.83
2022-08-05T04:54:40.630Z,3.85
2022-08-05T04:57:07.199Z,4.18
2022-08-05T04:59:39.214Z,3.78
2022-08-05T05:02:41.411Z,3.53
2022-08-05T05:05:02.372Z,3.70
2022-08-05T05:07:32.794Z,3.83
2022-08-05T05:10:05.418Z,3.67
2022-08-05T05:12:33.373Z,3.47
2022-08-05T05:15:00.053Z,3.55
2022-08-05T05:17:57.067Z,3.60
2022-08-05T05:20:28.267Z,3.50
2022-08-05T05:22:57.139Z,3.65
2022-08-05T05:25:40.568Z,3.72
2022-08-05T05:28:08.716Z,3.30
2022-08-05T05:30:36.147Z,3.80
2022-08-05T05:33:15.893Z,3.88
2022-08-05T05:35:46.746Z,3.80
2022-08-05T05:38:15.010Z,4.03
2022-08-05T05:40:51.848Z,4.20
2022-08-05T05:43:54.645Z,4.32
2022-08-05T05:46:15.829Z,4.22
2022-08-05T05:48:45.871Z,3.78
2022-08-05T05:51:22.428Z,4.22
2022-08-05T05:53:57.428Z,4.00
2022-08-05T05:56:32.692Z,3.85
2022-08-05T05:59:05.862Z,4.45
2022-08-05T06:01:39.325Z,3.93
2022-08-05T06:04:11.732Z,4.13
2022-08-05T06:06:42.670Z,4.38
2022-08-05T06:09:17.485Z,4.20
2022-08-05T06:11:59.495Z,3.92
2022-08-05T06:14:29.207Z,3.85
2022-08-05T06:16:56.965Z,4.13
2022-08-05T06:19:26.278Z,4.38
2022-08-05T06:22:07.252Z,4.05
2022-08-05T06:24:36.583Z,4.00
2022-08-05T06:27:04.415Z,4.03
2022-08-05T06:29:49.338Z,4.20
2022-08-05T06:32:26.386Z,3.90
2022-08-05T06:34:58.339Z,4.07
2022-08-05T06:37:56.868Z,3.90
2022-08-05T06:40:13.998Z,4.00
2022-08-05T06:42:45.635Z,4.03
2022-08-05T06:45:21.336Z,3.92
2022-08-05T06:48:36.110Z,3.70
2022-08-05T06:50:46.256Z,3.72
2022-08-05T06:53:22.388Z,4.40
2022-08-05T06:58:20.391Z,4.45
2022-08-05T07:01:01.558Z,3.60
2022-08-05T07:03:32.848Z,3.47
2022-08-05T07:06:06.137Z,4.35
2022-08-05T07:08:47.199Z,4.60
2022-08-05T07:11:16.017Z,4.30
2022-08-05T07:14:01.993Z,4.40
2022-08-05T07:17:58.540Z,4.00
2022-08-05T07:22:28.389Z,4.28
2022-08-05T07:25:23.486Z,4.72
2022-08-05T07:27:58.693Z,4.60
2022-08-05T07:30:38.412Z,4.47
2022-08-05T07:33:09.553Z,4.03
2022-08-05T07:36:02.810Z,3.78
2022-08-05T07:38:34.727Z,4.40
2022-08-05T07:42:07.317Z,4.80
2022-08-05T07:43:59.532Z,4.43
2022-08-05T07:46:27.675Z,4.30
2022-08-05T07:49:02.656Z,4.10
2022-08-05T07:51:36.645Z,4.18
2022-08-05T07:54:05.236Z,4.13
2022-08-05T07:56:39.175Z,4.00
2022-08-05T07:59:23.178Z,4.15
2022-08-05T08:01:58.087Z,3.70
2022-08-05T08:04:37.586Z,3.97
2022-08-05T08:07:07.315Z,3.60
2022-08-05T08:09:34.903Z,3.45
2022-08-05T08:12:09.109Z,3.90
2022-08-05T08:14:38.126Z,4.10
2022-08-05T08:17:15.804Z,4.30
2022-08-05T08:20:22.114Z,4.22
2022-08-05T08:22:32.287Z,4.53
2022-08-05T08:25:03.230Z,4.75
2022-08-05T08:27:39.906Z,4.60
2022-08-05T08:30:19.693Z,4.38
2022-08-05T08:32:58.364Z,4.50
2022-08-05T08:35:35.081Z,4.57
2022-08-05T08:38:07.780Z,4.05
2022-08-05T08:40:35.931Z,4.85
2022-08-05T08:45:16.688Z,4.35
2022-08-05T08:45:54.470Z,3.78
2022-08-05T08:48:36.125Z,4.47
2022-08-05T08:52:02.348Z,4.25
2022-08-05T08:53:56.163Z,4.15
2022-08-05T08:56:23.702Z,3.58
2022-08-05T08:58:54.006Z,3.90
2022-08-05T09:01:21.354Z,3.95
2022-08-05T09:03:58.297Z,4.00
2022-08-05T09:06:30.487Z,3.95
2022-08-05T09:09:01.907Z,3.67
2022-08-05T09:11:52.767Z,3.42
2022-08-05T09:14:56.990Z,3.70
2022-08-05T09:17:40.267Z,3.63
2022-08-05T09:20:02.182Z,3.58
2022-08-05T09:22:31.130Z,3.50
2022-08-05T09:25:13.525Z,3.55
2022-08-05T09:28:04.125Z,3.72
2022-08-05T09:30:34.828Z,3.78
2022-08-05T09:33:02.537Z,3.75
2022-08-05T09:35:31.572Z,4.13
2022-08-05T09:38:16.199Z,3.50
2022-08-05T09:40:52.346Z,3.40
2022-08-05T09:43:41.453Z,3.63
2022-08-05T09:46:27.804Z,3.50
2022-08-05T09:49:08.337Z,3.90
2022-08-05T09:51:48.800Z,3.72
2022-08-05T09:54:21.267Z,3.60
2022-08-05T09:56:57.470Z,3.80
2022-08-05T09:59:28.242Z,3.75
2022-08-05T10:01:57.686Z,3.75
2022-08-05T10:04:36.120Z,3.60
2022-08-05T10:07:20.098Z,3.42
2022-08-05T10:10:13.938Z,3.67
2022-08-05T10:12:56.607Z,3.30
2022-08-05T10:15:29.667Z,3.47
2022-08-05T10:18:04.108Z,3.30
2022-08-05T10:20:34.461Z,2.97
2022-08-05T10:23:02.127Z,3.15
2022-08-05T10:25:30.098Z,3.35
2022-08-05T10:28:16.611Z,3.30
2022-08-05T10:32:52.274Z,3.28
2022-08-05T10:33:35.295Z,3.00
2022-08-05T10:36:04.685Z,2.90
2022-08-05T10:38:33.298Z,3.25
2022-08-05T10:41:23.439Z,3.30
2022-08-05T10:44:01.338Z,2.78
2022-08-05T10:46:57.517Z,3.08
2022-08-05T10:52:03.285Z,3.10
2022-08-05T10:55:01.946Z,2.90
2022-08-05T10:57:33.915Z,3.00
2022-08-05T11:00:17.945Z,2.80
2022-08-05T11:03:25.628Z,3.20
2022-08-05T11:06:08.559Z,3.00
2022-08-05T11:09:16.723Z,2.63
2022-08-05T11:11:53.544Z,2.67
2022-08-05T11:14:37.302Z,2.97
2022-08-05T11:18:09.500Z,2.95
2022-08-05T11:20:34.289Z,3.40
2022-08-05T11:23:33.463Z,2.83
2022-08-05T11:26:29.061Z,2.70
2022-08-05T11:29:06.899Z,2.88
2022-08-05T11:31:58.166Z,3.00
2022-08-05T11:34:51.968Z,2.85
2022-08-05T11:38:29.936Z,2.70
2022-08-05T11:41:14.169Z,2.85
2022-08-05T11:44:06.989Z,3.40
2022-08-05T11:46:58.422Z,3.47
2022-08-05T11:49:34.054Z,3.25
2022-08-05T11:52:01.207Z,3.15
2022-08-05T11:54:35.001Z,3.67
2022-08-05T11:57:08.162Z,3.20
2022-08-05T11:59:51.456Z,3.50
2022-08-05T12:02:29.652Z,3.08
2022-08-05T12:05:07.494Z,3.42
2022-08-05T12:08:08.962Z,3.42
2022-08-05T12:10:38.652Z,3.05
2022-08-05T12:13:18.801Z,3.40
2022-08-05T12:16:15.462Z,3.03
2022-08-05T12:18:49.306Z,3.28
2022-08-05T12:21:26.994Z,3.17
2022-08-05T12:24:04.630Z,3.75
2022-08-05T12:26:32.792Z,3.70
2022-08-05T12:29:01.515Z,3.67
2022-08-05T12:31:33.528Z,4.00
2022-08-05T12:34:20.527Z,3.70
2022-08-05T12:36:49.915Z,3.70
2022-08-05T12:39:17.710Z,3.60
2022-08-05T12:41:45.438Z,3.38
2022-08-05T12:44:32.584Z,3.40
2022-08-05T12:47:02.232Z,3.05
2022-08-05T12:50:04.720Z,3.38
2022-08-05T12:52:42.027Z,3.60
2022-08-05T12:55:25.334Z,3.50
2022-08-05T12:58:49.930Z,3.20
2022-08-05T13:02:01.382Z,3.20
2022-08-05T13:03:32.235Z,3.28
2022-08-05T13:05:59.393Z,3.40
2022-08-05T13:08:32.106Z,3.30
2022-08-05T13:11:02.439Z,2.92
2022-08-05T13:14:05.926Z,3.60
2022-08-05T13:16:19.998Z,3.55
2022-08-05T13:18:57.740Z,3.50
2022-08-05T13:21:27.893Z,3.30
2022-08-05T13:24:05.656Z,3.58
2022-08-05T13:26:32.682Z,3.47
2022-08-05T13:28:59.658Z,3.42
2022-08-05T13:32:02.872Z,3.20
2022-08-05T13:34:22.648Z,3.42
2022-08-05T13:36:52.300Z,3.40
2022-08-05T13:40:14.030Z,3.35
2022-08-05T13:42:05.937Z,3.50
2022-08-05T13:44:32.673Z,3.70
2022-08-05T13:47:08.829Z,3.33
2022-08-05T13:49:36.454Z,3.47
2022-08-05T13:52:29.477Z,3.63
2022-08-05T13:54:56.746Z,3.85
2022-08-05T13:57:26.322Z,3.58
2022-08-05T14:00:13.148Z,3.40
2022-08-05T14:02:39.961Z,3.58
2022-08-05T14:05:15.440Z,3.50
2022-08-05T14:08:02.872Z,3.85
2022-08-05T14:10:35.642Z,3.80
2022-08-05T14:13:05.851Z,3.78
2022-08-05T14:16:08.068Z,3.78
2022-08-05T14:18:23.454Z,3.80
2022-08-05T14:20:54.527Z,3.88
2022-08-05T14:23:25.263Z,3.33
2022-08-05T14:25:59.004Z,4.28
2022-08-05T14:28:30.426Z,3.95
2022-08-05T14:30:58.880Z,4.03
2022-08-05T14:33:25.687Z,4.00
2022-08-05T14:35:54.417Z,3.90
2022-08-05T14:38:27.742Z,4.03
2022-08-05T14:41:00.911Z,4.00
2022-08-05T14:43:58.953Z,3.92
2022-08-05T14:46:14.552Z,4.30
2022-08-05T14:48:41.499Z,3.97
2022-08-05T14:51:09.420Z,4.25
2022-08-05T14:53:44.423Z,4.15
2022-08-05T14:56:11.987Z,3.90
2022-08-05T14:58:47.946Z,4.20
2022-08-05T15:01:47.281Z,4.65
2022-08-05T15:04:11.477Z,4.35
2022-08-05T15:06:38.887Z,4.20
2022-08-05T15:09:07.174Z,4.75
2022-08-05T15:11:52.462Z,4.38
2022-08-05T15:14:34.264Z,4.70
2022-08-05T15:17:04.742Z,4.88
2022-08-05T15:19:32.400Z,4.60
2022-08-05T15:22:01.298Z,4.60
2022-08-05T15:24:28.746Z,4.55
2022-08-05T15:26:56.006Z,4.75
2022-08-05T15:29:23.790Z,5.15
2022-08-05T15:31:57.254Z,4.55
2022-08-05T15:34:32.307Z,4.60
2022-08-05T15:37:02.361Z,4.78
2022-08-05T15:41:02.133Z,4.40
2022-08-05T15:42:50.320Z,4.90
2022-08-05T15:45:06.233Z,4.50
2022-08-05T15:47:35.914Z,4.78
2022-08-05T15:50:03.758Z,4.95
2022-08-05T15:52:53.303Z,5.03
2022-08-05T15:55:20.137Z,4.60
2022-08-05T15:57:52.328Z,4.07
2022-08-05T16:00:29.294Z,5.10
2022-08-05T16:03:06.490Z,4.50
2022-08-05T16:05:33.292Z,4.72
2022-08-05T16:08:00.042Z,4.65
2022-08-05T16:10:27.129Z,4.80
2022-08-05T16:12:55.885Z,5.25
2022-08-05T16:15:23.283Z,5.07
2022-08-05T16:17:57.935Z,5.40
2022-08-05T16:20:25.752Z,5.38
2022-08-05T16:22:54.759Z,6.10
2022-08-05T16:25:24.146Z,5.40
2022-08-05T16:28:09.811Z,5.25
2022-08-05T16:30:37.674Z,5.40
2022-08-05T16:33:04.810Z,5.32
2022-08-05T16:35:33.758Z,6.00
2022-08-05T16:38:16.456Z,5.20
2022-08-05T16:40:59.807Z,5.60
2022-08-05T16:43:33.059Z,5.93
2022-08-05T16:46:03.790Z,5.40
2022-08-05T16:48:38.261Z,5.47
2022-08-05T16:51:08.995Z,5.72
2022-08-05T16:54:05.686Z,5.80
2022-08-05T16:56:23.887Z,5.90
2022-08-05T16:58:50.734Z,5.88
2022-08-05T17:01:18.893Z,5.72
2022-08-05T17:03:46.030Z,6.18
2022-08-05T17:06:13.333Z,6.03
2022-08-05T17:08:53.152Z,5.97
2022-08-05T17:11:25.395Z,6.22
2022-08-05T17:13:54.805Z,5.85
2022-08-05T17:16:37.811Z,6.28
2022-08-05T17:19:07.862Z,6.15
2022-08-05T17:21:39.420Z,5.97
2022-08-05T17:24:19.794Z,6.10
2022-08-05T17:26:57.099Z,5.90
2022-08-05T17:29:33.072Z,5.95
2022-08-05T17:32:06.789Z,5.63
2022-08-05T17:34:35.259Z,4.82
2022-08-05T17:37:01.945Z,5.53
2022-08-05T17:39:33.965Z,5.32
2022-08-05T17:42:17.881Z,5.03
2022-08-05T17:44:50.321Z,4.55
2022-08-05T17:47:22.902Z,4.65
2022-08-05T17:50:04.328Z,5.18
2022-08-05T17:52:53.044Z,4.95
2022-08-05T17:55:22.698Z,5.43
2022-08-05T17:57:54.300Z,4.53
2022-08-05T18:00:21.045Z,5.30
2022-08-05T18:02:55.268Z,5.10
2022-08-05T18:05:22.287Z,5.05
2022-08-05T18:07:49.630Z,5.38
2022-08-05T18:10:21.116Z,4.55
2022-08-05T18:12:49.150Z,4.90
2022-08-05T18:15:15.867Z,4.90
2022-08-05T18:17:59.677Z,5.10
2022-08-05T18:20:32.009Z,4.82
2022-08-05T18:23:09.271Z,5.10
2022-08-05T18:25:39.157Z,5.10
2022-08-05T18:28:07.106Z,4.95
2022-08-05T18:30:39.109Z,4.88
2022-08-05T18:33:07.490Z,4.95
2022-08-05T18:36:01.103Z,4.60
2022-08-05T18:38:25.902Z,5.07
2022-08-05T18:41:53.311Z,4.95
2022-08-05T18:43:43.087Z,5.15
2022-08-05T18:46:15.475Z,4.70
2022-08-05T18:48:46.279Z,4.63
2022-08-05T18:52:02.751Z,4.80
2022-08-05T18:54:19.840Z,4.40
2022-08-05T18:56:51.307Z,4.35
2022-08-05T18:59:44.409Z,4.00
2022-08-05T19:02:11.334Z,4.40
2022-08-05T19:05:01.363Z,4.45
2022-08-05T19:07:45.984Z,3.90
2022-08-05T19:10:13.220Z,4.00
2022-08-05T19:12:40.460Z,4.47
2022-08-05T19:15:24.940Z,4.10
2022-08-05T19:17:59.856Z,4.70
2022-08-05T19:20:37.104Z,3.65
2022-08-05T19:23:08.563Z,5.53
2022-08-05T19:26:01.699Z,5.10
2022-08-05T19:28:29.388Z,4.68
2022-08-05T19:30:56.044Z,4.60
2022-08-05T19:33:35.626Z,5.03
2022-08-05T19:36:02.817Z,4.50
2022-08-05T19:38:33.781Z,4.88
2022-08-05T19:41:02.418Z,5.50
2022-08-05T19:44:05.804Z,5.68
2022-08-05T19:46:29.726Z,5.13
2022-08-05T19:49:04.561Z,4.65
2022-08-05T19:52:05.733Z,5.10
2022-08-05T19:54:25.474Z,4.63
2022-08-05T19:56:58.357Z,5.05
2022-08-05T20:00:01.020Z,4.50
2022-08-05T20:02:14.439Z,4.97
2022-08-05T20:04:43.258Z,5.10
2022-08-05T20:07:13.954Z,4.50
2022-08-05T20:09:54.761Z,4.03
2022-08-05T20:12:23.713Z,4.47
2022-08-05T20:14:52.225Z,4.63
2022-08-05T20:17:23.458Z,3.63
2022-08-05T20:19:56.545Z,3.28
2022-08-05T20:22:27.180Z,3.20
2022-08-05T20:24:55.362Z,3.22
2022-08-05T20:27:26.701Z,3.95
2022-08-05T20:29:58.557Z,2.50
2022-08-05T20:32:27.273Z,2.60
2022-08-05T20:34:54.630Z,2.50
2022-08-05T20:38:04.811Z,3.28
2022-08-05T20:40:09.360Z,3.17
2022-08-05T20:42:36.097Z,2.35
2022-08-05T20:45:04.618Z,2.67
2022-08-05T20:47:32.716Z,2.35
2022-08-05T20:50:02.148Z,2.90
2022-08-05T20:52:29.397Z,2.40
2022-08-05T20:55:54.214Z,2.40
2022-08-05T20:57:44.682Z,2.60
2022-08-05T21:00:40.868Z,2.63
2022-08-05T21:03:07.422Z,2.30
2022-08-05T21:05:48.098Z,2.20
2022-08-05T21:08:21.024Z,2.58
2022-08-05T21:10:53.779Z,2.47
2022-08-05T21:13:26.044Z,2.30
2022-08-05T21:15:54.606Z,2.22
2022-08-05T21:18:23.374Z,2.28
2022-08-05T21:20:50.185Z,2.70
2022-08-05T21:23:16.907Z,2.33
2022-08-05T21:25:44.847Z,2.60
2022-08-05T21:28:12.190Z,2.50
2022-08-05T21:30:45.211Z,2.80
2022-08-05T21:33:21.963Z,2.40
2022-08-05T21:35:55.759Z,2.53
2022-08-05T21:38:26.690Z,2.90
2022-08-05T21:40:53.346Z,2.30
2022-08-05T21:43:24.505Z,3.78
2022-08-05T21:45:57.633Z,2.90
2022-08-05T21:48:28.164Z,2.50
2022-08-05T21:50:55.243Z,2.38
2022-08-05T21:53:27.545Z,2.38
2022-08-05T21:56:05.028Z,2.22
2022-08-05T21:58:37.058Z,2.10
2022-08-05T22:03:52.428Z,2.80
2022-08-05T22:06:22.204Z,2.30
2022-08-05T22:08:51.816Z,2.35
2022-08-05T22:11:19.343Z,2.10
2022-08-05T22:14:05.538Z,2.25
2022-08-05T22:16:51.889Z,2.50
2022-08-05T22:20:01.158Z,2.50
2022-08-05T22:22:07.560Z,2.25
2022-08-05T22:24:55.694Z,2.05
2022-08-05T22:28:11.025Z,2.35
2022-08-05T22:30:32.208Z,2.10
2022-08-05T22:33:02.138Z,2.45
2022-08-05T22:35:31.262Z,2.45
2022-08-05T22:38:15.027Z,2.55
2022-08-05T22:40:41.963Z,2.80
2022-08-05T22:43:16.339Z,2.35
2022-08-05T22:46:07.427Z,2.10
2022-08-05T22:48:39.191Z,2.00
2022-08-05T22:51:07.048Z,2.03
2022-08-05T22:53:35.823Z,2.38
2022-08-05T22:56:03.664Z,2.03
2022-08-05T22:58:36.796Z,1.95
2022-08-05T23:01:03.505Z,1.60
2022-08-05T23:03:58.156Z,1.83
2022-08-05T23:06:19.869Z,1.90
2022-08-05T23:08:52.994Z,1.85
2022-08-05T23:11:19.656Z,1.95
2022-08-05T23:13:46.309Z,2.08
2022-08-05T23:16:26.224Z,2.30
2022-08-05T23:19:00.319Z,2.25
2022-08-05T23:21:42.659Z,2.20
2022-08-05T23:24:14.583Z,2.15
2022-08-05T23:26:41.974Z,2.10
2022-08-05T23:29:10.879Z,2.55
2022-08-05T23:31:42.579Z,2.55
2022-08-05T23:34:11.391Z,2.20
2022-08-05T23:36:44.329Z,2.30
2022-08-05T23:39:17.589Z,2.45
2022-08-05T23:41:59.568Z,2.20
2022-08-05T23:44:27.815Z,2.33
2022-08-05T23:47:00.294Z,2.30
2022-08-05T23:49:35.764Z,2.47
2022-08-05T23:52:21.805Z,2.35
2022-08-05T23:54:52.688Z,2.25
2022-08-05T23:57:19.412Z,2.17
